createdAt,value
2019-05-03T00:02:12.410Z,1.70
2019-05-03T00:04:42.143Z,1.73
2019-05-03T00:07:08.483Z,1.98
2019-05-03T00:09:36.557Z,1.90
2019-05-03T00:12:04.586Z,1.65
2019-05-03T00:14:32.663Z,1.65
2019-05-03T00:17:02.268Z,1.50
2019-05-03T00:19:28.714Z,1.58
2019-05-03T00:21:57.539Z,1.52
2019-05-03T00:24:25.595Z,1.70
2019-05-03T00:26:53.635Z,1.62
2019-05-03T00:29:22.099Z,1.73
2019-05-03T00:31:51.542Z,1.90
2019-05-03T00:34:32.714Z,1.70
2019-05-03T00:37:06.346Z,1.60
2019-05-03T00:39:34.398Z,2.08
2019-05-03T00:42:02.766Z,1.70
2019-05-03T00:44:31.694Z,1.70
2019-05-03T00:46:58.614Z,1.60
2019-05-03T00:49:26.658Z,1.80
2019-05-03T00:51:55.471Z,1.70
2019-05-03T00:54:24.359Z,2.13
2019-05-03T00:56:52.432Z,2.20
2019-05-03T00:59:22.162Z,2.20
2019-05-03T01:01:48.523Z,2.42
2019-05-03T01:04:16.639Z,2.80
2019-05-03T01:06:44.688Z,2.83
2019-05-03T01:09:13.521Z,2.85
2019-05-03T01:11:41.877Z,3.00
2019-05-03T01:14:09.644Z,3.62
2019-05-03T01:16:37.706Z,3.45
2019-05-03T01:19:05.786Z,3.42
2019-05-03T01:21:34.572Z,3.30
2019-05-03T01:24:02.614Z,3.42
2019-05-03T01:26:31.976Z,3.47
2019-05-03T01:29:00.416Z,4.37
2019-05-03T01:31:29.299Z,4.20
2019-05-03T01:33:57.748Z,4.05
2019-05-03T01:36:25.854Z,4.55
2019-05-03T01:38:53.894Z,4.50
2019-05-03T01:41:21.995Z,4.57
2019-05-03T01:43:50.080Z,4.32
2019-05-03T01:46:18.123Z,4.00
2019-05-03T01:48:52.182Z,4.22
2019-05-03T01:51:24.574Z,4.20
2019-05-03T01:53:52.610Z,4.28
2019-05-03T01:56:22.325Z,4.72
2019-05-03T01:58:48.692Z,5.30
2019-05-03T02:01:22.346Z,5.10
2019-05-03T02:04:07.093Z,4.97
2019-05-03T02:06:35.138Z,5.47
2019-05-03T02:09:03.167Z,5.55
2019-05-03T02:11:32.619Z,5.70
2019-05-03T02:13:59.370Z,5.30
2019-05-03T02:16:27.438Z,4.95
2019-05-03T02:18:55.482Z,4.97
2019-05-03T02:21:23.514Z,5.40
2019-05-03T02:23:52.103Z,5.80
2019-05-03T02:26:19.723Z,6.05
2019-05-03T02:28:48.515Z,6.28
2019-05-03T02:31:16.553Z,5.90
2019-05-03T02:33:44.676Z,6.37
2019-05-03T02:36:13.598Z,5.87
2019-05-03T02:38:42.946Z,5.95
2019-05-03T02:41:09.583Z,6.15
2019-05-03T02:43:37.619Z,6.20
2019-05-03T02:46:11.435Z,6.12
2019-05-03T02:48:57.127Z,5.95
2019-05-03T02:51:26.076Z,6.03
2019-05-03T02:53:56.783Z,6.03
2019-05-03T02:56:23.361Z,6.20
2019-05-03T02:58:50.143Z,6.60
2019-05-03T03:01:18.214Z,6.32
2019-05-03T03:03:46.263Z,7.12
2019-05-03T03:06:15.780Z,7.18
2019-05-03T03:08:45.384Z,6.90
2019-05-03T03:11:11.931Z,7.75
2019-05-03T03:13:39.970Z,7.80
2019-05-03T03:16:08.076Z,8.40
2019-05-03T03:18:36.594Z,7.97
2019-05-03T03:21:05.856Z,8.00
2019-05-03T03:23:35.487Z,9.10
2019-05-03T03:26:01.909Z,9.25
2019-05-03T03:28:30.779Z,9.03
2019-05-03T03:31:21.573Z,9.73
2019-05-03T03:33:50.672Z,9.23
2019-05-03T03:36:49.782Z,9.43
2019-05-03T03:38:46.787Z,9.07
2019-05-03T03:41:16.325Z,9.50
2019-05-03T03:43:42.871Z,9.60
2019-05-03T03:46:10.902Z,9.48
2019-05-03T03:48:39.014Z,9.83
2019-05-03T03:51:07.070Z,9.40
2019-05-03T03:53:35.637Z,9.43
2019-05-03T03:56:05.629Z,9.43
2019-05-03T03:58:31.991Z,9.55
2019-05-03T04:01:00.780Z,9.57
2019-05-03T04:03:28.811Z,9.85
2019-05-03T04:05:56.842Z,9.50
2019-05-03T04:08:25.270Z,10.40
2019-05-03T04:10:55.717Z,10.38
2019-05-03T04:13:21.751Z,9.80
2019-05-03T04:15:55.974Z,10.77
2019-05-03T04:21:19.564Z,10.65
2019-05-03T04:23:47.626Z,10.80
2019-05-03T04:26:16.430Z,10.85
2019-05-03T04:28:45.398Z,11.65
2019-05-03T04:31:15.060Z,11.48
2019-05-03T04:33:40.606Z,11.68
2019-05-03T04:36:08.694Z,11.52
2019-05-03T04:38:36.756Z,12.45
2019-05-03T04:41:05.924Z,12.85
2019-05-03T04:43:35.623Z,12.65
2019-05-03T04:46:06.699Z,13.35
2019-05-03T04:48:35.749Z,14.43
2019-05-03T04:51:02.652Z,13.20
2019-05-03T04:53:30.707Z,13.52
2019-05-03T04:55:58.746Z,13.82
2019-05-03T04:58:26.853Z,13.77
2019-05-03T05:00:55.385Z,14.57
2019-05-03T05:03:23.007Z,15.07
2019-05-03T05:05:51.795Z,15.18
2019-05-03T05:08:19.835Z,15.15
2019-05-03T05:10:47.931Z,14.90
2019-05-03T05:13:16.017Z,16.08
2019-05-03T05:15:45.937Z,15.70
2019-05-03T05:18:15.749Z,17.35
2019-05-03T05:20:45.410Z,16.93
2019-05-03T05:23:11.854Z,16.27
2019-05-03T05:25:39.910Z,16.90
2019-05-03T05:28:09.158Z,16.77
2019-05-03T05:30:37.219Z,16.98
2019-05-03T05:33:05.450Z,17.08
2019-05-03T05:35:35.115Z,16.62
2019-05-03T05:38:01.427Z,17.35
2019-05-03T05:40:29.470Z,17.77
2019-05-03T05:42:57.547Z,17.77
2019-05-03T05:45:25.603Z,17.25
2019-05-03T05:47:58.006Z,17.17
2019-05-03T05:50:28.626Z,18.25
2019-05-03T05:52:56.675Z,18.40
2019-05-03T05:55:44.726Z,17.77
2019-05-03T05:58:11.394Z,17.20
2019-05-03T06:00:39.910Z,17.12
2019-05-03T06:03:08.028Z,15.90
2019-05-03T06:05:36.086Z,16.65
2019-05-03T06:08:09.970Z,17.25
2019-05-03T06:10:39.698Z,16.58
2019-05-03T06:13:15.198Z,16.73
2019-05-03T06:15:48.991Z,17.27
2019-05-03T06:21:15.299Z,17.50
2019-05-03T06:23:45.824Z,17.20
2019-05-03T06:26:19.719Z,16.92
2019-05-03T06:28:48.635Z,16.50
2019-05-03T06:31:19.577Z,17.40
2019-05-03T06:33:45.180Z,16.67
2019-05-03T06:36:15.108Z,16.80
2019-05-03T06:38:42.328Z,17.92
2019-05-03T06:41:09.295Z,17.80
2019-05-03T06:43:39.592Z,18.00
2019-05-03T06:46:06.228Z,18.05
2019-05-03T06:48:35.327Z,17.02
2019-05-03T06:51:08.786Z,16.67
2019-05-03T06:53:32.131Z,16.90
2019-05-03T06:56:00.188Z,17.25
2019-05-03T06:58:33.492Z,16.50
2019-05-03T07:00:58.968Z,18.10
2019-05-03T07:03:32.812Z,18.00
2019-05-03T07:06:06.654Z,18.37
2019-05-03T07:08:35.474Z,19.83
2019-05-03T07:11:05.244Z,19.98
2019-05-03T07:13:34.419Z,20.05
2019-05-03T07:16:01.318Z,20.63
2019-05-03T07:18:29.430Z,19.12
2019-05-03T07:20:57.470Z,22.17
2019-05-03T07:23:25.534Z,21.25
2019-05-03T07:25:55.188Z,21.65
2019-05-03T07:28:22.386Z,20.42
2019-05-03T07:30:50.437Z,19.60
2019-05-03T07:33:19.263Z,20.12
2019-05-03T07:35:47.315Z,17.80
2019-05-03T07:38:15.583Z,17.60
2019-05-03T07:40:44.577Z,18.63
2019-05-03T07:43:11.530Z,17.60
2019-05-03T07:45:39.607Z,18.05
2019-05-03T07:48:07.674Z,17.67
2019-05-03T07:50:35.861Z,18.17
2019-05-03T07:53:04.642Z,17.40
2019-05-03T07:55:37.500Z,16.62
2019-05-03T07:58:06.331Z,18.17
2019-05-03T08:00:34.431Z,17.58
2019-05-03T08:03:02.418Z,18.70
2019-05-03T08:05:31.223Z,19.45
2019-05-03T08:07:59.312Z,19.05
2019-05-03T08:10:27.363Z,18.77
2019-05-03T08:12:56.162Z,18.83
2019-05-03T08:15:24.652Z,18.02
2019-05-03T08:17:52.998Z,18.60
2019-05-03T08:20:21.813Z,20.10
2019-05-03T08:22:49.854Z,19.25
2019-05-03T08:25:18.763Z,18.83
2019-05-03T08:27:47.560Z,19.93
2019-05-03T08:30:15.599Z,20.00
2019-05-03T08:32:49.434Z,20.57
2019-05-03T08:35:20.070Z,20.58
2019-05-03T08:37:48.607Z,19.52
2019-05-03T08:40:16.657Z,20.98
2019-05-03T08:42:44.716Z,21.62
2019-05-03T08:45:14.660Z,20.65
2019-05-03T08:47:41.563Z,21.40
2019-05-03T08:50:09.609Z,20.08
2019-05-03T08:52:38.387Z,20.93
2019-05-03T08:55:06.477Z,19.35
2019-05-03T08:57:35.455Z,20.25
2019-05-03T09:00:05.153Z,19.42
2019-05-03T09:02:31.411Z,20.95
2019-05-03T09:04:59.468Z,20.20
2019-05-03T09:07:27.515Z,20.02
2019-05-03T09:09:56.327Z,19.70
2019-05-03T09:12:25.216Z,18.95
2019-05-03T09:14:54.511Z,17.83
2019-05-03T09:17:20.535Z,19.50
2019-05-03T09:19:48.602Z,18.60
2019-05-03T09:22:16.695Z,18.12
2019-05-03T09:24:45.545Z,17.77
2019-05-03T09:27:12.927Z,17.25
2019-05-03T09:29:43.504Z,17.08
2019-05-03T09:32:09.058Z,15.80
2019-05-03T09:34:37.114Z,15.35
2019-05-03T09:37:05.938Z,15.30
2019-05-03T09:39:35.492Z,14.85
2019-05-03T09:42:02.046Z,15.30
2019-05-03T09:44:30.858Z,14.63
2019-05-03T09:46:58.906Z,15.02
2019-05-03T09:49:27.818Z,14.75
2019-05-03T09:51:55.942Z,15.60
2019-05-03T09:54:25.514Z,15.02
2019-05-03T09:56:58.583Z,16.80
2019-05-03T09:59:25.526Z,17.55
2019-05-03T10:01:54.841Z,17.00
2019-05-03T10:04:22.073Z,16.33
2019-05-03T10:06:50.119Z,16.58
2019-05-03T10:09:19.030Z,17.15
2019-05-03T10:11:47.123Z,17.15
2019-05-03T10:14:15.613Z,18.00
2019-05-03T10:16:44.884Z,18.23
2019-05-03T10:19:14.330Z,17.45
2019-05-03T10:21:40.183Z,17.52
2019-05-03T10:24:09.096Z,17.37
2019-05-03T10:26:37.159Z,18.33
2019-05-03T10:29:05.492Z,18.00
2019-05-03T10:31:35.942Z,18.55
2019-05-03T10:34:05.817Z,18.25
2019-05-03T10:36:32.806Z,18.58
2019-05-03T10:39:00.854Z,20.15
2019-05-03T10:41:28.920Z,15.60
2019-05-03T10:43:57.043Z,12.18
2019-05-03T10:46:25.201Z,12.43
2019-05-03T10:48:55.603Z,13.25
2019-05-03T10:51:21.237Z,14.13
2019-05-03T10:53:50.068Z,14.70
2019-05-03T10:56:23.265Z,14.75
2019-05-03T10:59:03.442Z,14.48
2019-05-03T11:04:29.582Z,13.57
2019-05-03T11:06:57.623Z,14.40
2019-05-03T11:09:26.084Z,14.40
2019-05-03T11:11:55.502Z,15.20
2019-05-03T11:14:21.930Z,13.10
2019-05-03T11:16:49.990Z,13.55
2019-05-03T11:19:18.045Z,12.93
2019-05-03T11:21:46.126Z,13.05
2019-05-03T11:24:14.745Z,12.15
2019-05-03T11:26:42.239Z,12.52
2019-05-03T11:29:10.281Z,13.60
2019-05-03T11:31:44.566Z,12.63
2019-05-03T11:34:17.087Z,12.57
2019-05-03T11:36:50.665Z,12.37
2019-05-03T11:39:18.826Z,12.80
2019-05-03T11:41:46.880Z,13.38
2019-05-03T11:44:20.654Z,12.95
2019-05-03T11:46:49.550Z,12.57
2019-05-03T11:49:17.602Z,12.23
2019-05-03T11:51:46.434Z,12.32
2019-05-03T11:54:15.726Z,12.98
2019-05-03T11:56:44.485Z,12.68
2019-05-03T11:59:10.732Z,12.35
2019-05-03T12:01:38.800Z,13.13
2019-05-03T12:04:06.875Z,12.88
2019-05-03T12:06:36.810Z,13.62
2019-05-03T12:09:05.512Z,12.20
2019-05-03T12:11:31.116Z,12.43
2019-05-03T12:14:06.855Z,11.73
2019-05-03T12:17:07.703Z,11.38
2019-05-03T12:19:15.642Z,11.50
2019-05-03T12:21:30.557Z,11.27
2019-05-03T12:23:58.663Z,12.37
2019-05-03T12:26:40.303Z,11.60
2019-05-03T12:28:54.244Z,11.10
2019-05-03T12:31:31.757Z,9.63
2019-05-03T12:33:51.907Z,9.50
2019-05-03T12:36:19.948Z,8.27
2019-05-03T12:38:48.008Z,9.23
2019-05-03T12:41:16.117Z,8.10
2019-05-03T12:43:44.162Z,7.43
2019-05-03T12:46:12.194Z,7.87
2019-05-03T12:48:40.223Z,7.47
2019-05-03T12:51:09.000Z,7.80
2019-05-03T12:53:36.575Z,8.13
2019-05-03T12:56:11.257Z,8.50
2019-05-03T12:58:38.463Z,9.18
2019-05-03T13:01:06.957Z,9.25
2019-05-03T13:03:35.014Z,9.68
2019-05-03T13:06:05.270Z,9.52
2019-05-03T13:08:35.036Z,10.07
2019-05-03T13:11:00.851Z,8.68
2019-05-03T13:13:28.921Z,8.98
2019-05-03T13:15:57.700Z,9.30
2019-05-03T13:18:25.747Z,8.82
2019-05-03T13:20:55.631Z,8.30
2019-05-03T13:23:21.824Z,8.10
2019-05-03T13:25:49.867Z,8.55
2019-05-03T13:28:17.915Z,9.63
2019-05-03T13:30:47.573Z,9.30
2019-05-03T13:33:15.645Z,7.55
2019-05-03T13:35:44.652Z,8.48
2019-05-03T13:38:12.583Z,7.40
2019-05-03T13:40:41.399Z,7.72
2019-05-03T13:43:09.448Z,7.60
2019-05-03T13:45:37.494Z,7.80
2019-05-03T13:48:06.407Z,7.00
2019-05-03T13:50:35.143Z,8.10
2019-05-03T13:53:04.867Z,8.00
2019-05-03T13:55:31.346Z,8.13
2019-05-03T13:57:59.420Z,8.48
2019-05-03T14:00:27.462Z,9.07
2019-05-03T14:02:56.354Z,8.80
2019-05-03T14:05:24.555Z,8.98
2019-05-03T14:07:51.562Z,8.18
2019-05-03T14:10:20.551Z,7.20
2019-05-03T14:12:48.528Z,6.57
2019-05-03T14:15:36.250Z,7.40
2019-05-03T14:18:05.997Z,6.40
2019-05-03T14:20:38.345Z,7.22
2019-05-03T14:23:07.007Z,6.77
2019-05-03T14:25:35.375Z,7.60
2019-05-03T14:28:05.324Z,7.00
2019-05-03T14:30:31.472Z,7.15
2019-05-03T14:32:59.514Z,7.35
2019-05-03T14:35:28.311Z,6.93
2019-05-03T14:37:56.391Z,7.30
2019-05-03T14:40:25.065Z,7.12
2019-05-03T14:42:52.472Z,7.10
2019-05-03T14:45:20.603Z,7.28
2019-05-03T14:47:48.722Z,6.10
2019-05-03T14:50:16.750Z,6.90
2019-05-03T14:52:45.524Z,6.30
2019-05-03T14:55:16.582Z,6.47
2019-05-03T14:58:03.402Z,6.55
2019-05-03T15:00:31.919Z,7.43
2019-05-03T15:03:01.911Z,7.18
2019-05-03T15:05:29.964Z,7.20
2019-05-03T15:07:57.983Z,7.55
2019-05-03T15:10:26.026Z,7.65
2019-05-03T15:12:55.633Z,7.57
2019-05-03T15:15:22.123Z,7.50
2019-05-03T15:17:50.150Z,7.60
2019-05-03T15:20:18.232Z,7.32
2019-05-03T15:22:46.346Z,7.47
2019-05-03T15:25:14.373Z,8.05
2019-05-03T15:27:42.416Z,7.80
2019-05-03T15:30:10.447Z,8.80
2019-05-03T15:32:38.542Z,7.82
2019-05-03T15:35:06.599Z,7.60
2019-05-03T15:37:35.827Z,8.07
2019-05-03T15:40:05.980Z,8.40
2019-05-03T15:42:34.482Z,9.35
2019-05-03T15:45:05.192Z,9.75
2019-05-03T15:47:32.514Z,9.52
2019-05-03T15:50:00.652Z,11.07
2019-05-03T15:52:29.526Z,9.00
2019-05-03T15:54:57.567Z,8.90
2019-05-03T15:57:25.679Z,8.73
2019-05-03T15:59:55.149Z,9.10
2019-05-03T16:02:21.791Z,8.52
2019-05-03T16:04:50.589Z,8.77
2019-05-03T16:07:19.398Z,8.40
2019-05-03T16:09:47.434Z,8.98
2019-05-03T16:12:15.467Z,8.57
2019-05-03T16:14:44.561Z,8.10
2019-05-03T16:17:11.563Z,8.70
2019-05-03T16:19:39.647Z,8.32
2019-05-03T16:22:07.696Z,8.75
2019-05-03T16:24:35.790Z,8.80
2019-05-03T16:27:09.817Z,8.55
2019-05-03T16:29:37.871Z,8.75
2019-05-03T16:32:05.915Z,9.30
2019-05-03T16:34:35.116Z,9.10
2019-05-03T16:37:04.381Z,10.10
2019-05-03T16:39:30.969Z,9.82
2019-05-03T16:41:59.044Z,10.35
2019-05-03T16:44:27.090Z,11.10
2019-05-03T16:46:55.910Z,10.95
2019-05-03T16:49:24.657Z,11.12
2019-05-03T16:51:52.034Z,11.57
2019-05-03T16:54:20.103Z,11.07
2019-05-03T16:56:48.174Z,11.82
2019-05-03T16:59:17.420Z,10.93
2019-05-03T17:01:44.535Z,11.02
2019-05-03T17:04:28.191Z,12.37
2019-05-03T17:06:59.058Z,20.48
2019-05-03T17:09:35.363Z,17.90
2019-05-03T17:12:05.575Z,12.90
2019-05-03T17:14:34.386Z,11.73
2019-05-03T17:17:01.819Z,11.30
2019-05-03T17:19:29.879Z,11.98
2019-05-03T17:21:57.958Z,12.20
2019-05-03T17:24:26.028Z,12.68
2019-05-03T17:26:55.125Z,11.68
2019-05-03T17:29:24.562Z,11.68
2019-05-03T17:31:50.959Z,11.80
2019-05-03T17:34:19.027Z,12.35
2019-05-03T17:36:47.099Z,12.02
2019-05-03T17:39:15.901Z,11.65
2019-05-03T17:41:45.329Z,11.70
2019-05-03T17:44:14.494Z,11.50
2019-05-03T17:46:45.273Z,14.68
2019-05-03T17:49:11.427Z,14.55
2019-05-03T17:51:41.914Z,14.77
2019-05-03T17:57:06.563Z,12.98
2019-05-03T17:59:38.019Z,12.93
2019-05-03T18:02:11.887Z,13.20
2019-05-03T18:04:50.746Z,12.13
2019-05-03T18:07:24.534Z,13.50
2019-05-03T18:09:52.579Z,12.90
2019-05-03T18:12:20.706Z,12.23
2019-05-03T18:14:48.781Z,12.68
2019-05-03T18:17:17.554Z,12.95
2019-05-03T18:19:47.787Z,13.73
2019-05-03T18:22:15.282Z,13.98
2019-05-03T18:24:41.766Z,13.82
2019-05-03T18:27:09.883Z,14.07
2019-05-03T18:29:37.972Z,15.10
2019-05-03T18:32:06.003Z,15.70
2019-05-03T18:34:34.034Z,14.27
2019-05-03T18:37:02.134Z,14.52
2019-05-03T18:39:30.191Z,13.62
2019-05-03T18:41:58.241Z,13.10
2019-05-03T18:44:29.670Z,13.00
2019-05-03T18:47:00.202Z,12.77
2019-05-03T18:49:28.334Z,14.00
2019-05-03T18:51:56.386Z,12.90
2019-05-03T18:54:24.677Z,13.40
2019-05-03T18:56:53.258Z,13.40
2019-05-03T18:59:21.429Z,13.65
2019-05-03T19:01:49.473Z,13.80
2019-05-03T19:04:18.290Z,13.48
2019-05-03T19:06:46.346Z,13.65
2019-05-03T19:09:20.023Z,13.77
2019-05-03T19:11:48.840Z,14.10
2019-05-03T19:14:18.327Z,13.70
2019-05-03T19:16:50.058Z,14.63
2019-05-03T19:19:19.628Z,14.60
2019-05-03T19:21:47.784Z,14.85
2019-05-03T19:24:15.848Z,15.07
2019-05-03T19:26:45.027Z,14.98
2019-05-03T19:29:11.973Z,15.32
2019-05-03T19:31:40.786Z,15.32
2019-05-03T19:34:08.838Z,12.52
2019-05-03T19:36:37.329Z,12.32
2019-05-03T19:39:05.028Z,12.85
2019-05-03T19:41:34.466Z,14.23
2019-05-03T19:44:01.935Z,15.10
2019-05-03T19:46:30.766Z,13.68
2019-05-03T19:48:58.811Z,14.10
2019-05-03T19:51:26.858Z,14.32
2019-05-03T19:53:55.670Z,15.43
2019-05-03T19:56:25.607Z,16.52
2019-05-03T19:58:51.778Z,14.95
2019-05-03T20:01:35.488Z,14.82
2019-05-03T20:04:06.024Z,15.13
2019-05-03T20:06:34.714Z,15.63
2019-05-03T20:09:06.282Z,16.23
2019-05-03T20:11:35.107Z,16.33
2019-05-03T20:14:04.737Z,16.42
2019-05-03T20:16:31.227Z,16.33
2019-05-03T20:19:00.134Z,15.80
2019-05-03T20:21:29.011Z,15.90
2019-05-03T20:23:57.057Z,16.52
2019-05-03T20:26:25.371Z,16.77
2019-05-03T20:28:55.190Z,16.08
2019-05-03T20:31:22.423Z,16.00
2019-05-03T20:33:50.470Z,15.73
2019-05-03T20:36:19.367Z,16.80
2019-05-03T20:38:48.174Z,16.65
2019-05-03T20:41:16.210Z,16.33
2019-05-03T20:43:45.022Z,16.30
2019-05-03T20:46:14.964Z,17.20
2019-05-03T20:48:41.893Z,24.25
2019-05-03T20:51:09.954Z,21.33
2019-05-03T20:53:38.565Z,16.62
2019-05-03T20:56:06.619Z,15.90
2019-05-03T20:58:35.853Z,17.35
2019-05-03T21:01:02.757Z,17.40
2019-05-03T21:03:30.827Z,17.30
2019-05-03T21:05:58.904Z,17.62
2019-05-03T21:08:27.678Z,17.07
2019-05-03T21:10:55.754Z,17.55
2019-05-03T21:13:25.210Z,17.67
2019-05-03T21:15:52.700Z,18.25
2019-05-03T21:18:28.389Z,17.95
2019-05-03T21:20:59.271Z,18.12
2019-05-03T21:23:34.385Z,18.17
2019-05-03T21:26:11.401Z,17.73
2019-05-03T21:28:29.983Z,18.52
2019-05-03T21:30:58.019Z,18.20
2019-05-03T21:33:26.914Z,16.85
2019-05-03T21:35:55.683Z,16.80
2019-05-03T21:38:24.611Z,17.05
2019-05-03T21:40:51.094Z,16.27
2019-05-03T21:43:19.253Z,16.55
2019-05-03T21:45:48.311Z,16.62
2019-05-03T21:48:17.718Z,16.40
2019-05-03T21:50:45.778Z,16.83
2019-05-03T21:53:14.721Z,16.33
2019-05-03T21:55:44.575Z,16.98
2019-05-03T21:58:10.794Z,16.50
2019-05-03T22:00:55.728Z,17.02
2019-05-03T22:03:25.232Z,17.00
2019-05-03T22:05:55.346Z,16.83
2019-05-03T22:08:19.976Z,16.62
2019-05-03T22:10:48.064Z,16.87
2019-05-03T22:13:16.851Z,15.90
2019-05-03T22:15:47.528Z,16.58
2019-05-03T22:18:19.170Z,16.15
2019-05-03T22:20:47.767Z,15.73
2019-05-03T22:23:16.644Z,15.23
2019-05-03T22:25:44.680Z,15.60
2019-05-03T22:28:12.730Z,15.15
2019-05-03T22:30:41.506Z,15.50
2019-05-03T22:33:10.310Z,15.68
2019-05-03T22:35:38.347Z,15.15
2019-05-03T22:38:06.573Z,14.73
2019-05-03T22:40:35.416Z,15.80
2019-05-03T22:43:02.488Z,15.88
2019-05-03T22:45:30.570Z,15.88
2019-05-03T22:47:59.446Z,16.40
2019-05-03T22:50:27.490Z,16.25
2019-05-03T22:52:56.308Z,16.37
2019-05-03T22:55:24.709Z,16.60
2019-05-03T22:57:54.548Z,15.15
2019-05-03T23:00:21.236Z,15.30
2019-05-03T23:02:49.310Z,15.00
2019-05-03T23:05:18.098Z,14.60
2019-05-03T23:07:46.964Z,14.18
2019-05-03T23:10:17.270Z,13.27
2019-05-03T23:12:45.105Z,13.50
2019-05-03T23:15:11.091Z,13.52
2019-05-03T23:17:39.135Z,13.30
2019-05-03T23:20:08.292Z,13.75
2019-05-03T23:22:36.355Z,14.32
2019-05-03T23:25:05.187Z,15.20
2019-05-03T23:27:35.234Z,15.50
2019-05-03T23:30:01.259Z,15.45
2019-05-03T23:32:29.311Z,15.60
2019-05-03T23:34:58.130Z,15.60
2019-05-03T23:37:26.145Z,15.35
2019-05-03T23:39:55.124Z,14.77
2019-05-03T23:42:24.366Z,14.90
2019-05-03T23:44:51.215Z,15.20
2019-05-03T23:47:30.120Z,16.27
2019-05-03T23:49:58.943Z,15.68
2019-05-03T23:52:29.485Z,15.18
2019-05-03T23:55:00.010Z,15.15
2019-05-03T23:57:28.031Z,15.38
2019-05-03T23:59:56.978Z,15.15
